Time;durP1;ratioP1;P1;durP2;ratioP2;P2;SDS_P1;SDS_P2;PMS_P1;PMS_P2;Temp;Humidity;BMP_temperature;BMP_pressure;BME280_temperature;BME280_humidity;BME280_pressure;Samples;Min_cycle;Max_cycle;Signal;HPM_P1;HPM_P2
2023/03/23 00:01:57;;;;;;;7.22;4.50;;;;;;;8.45;100.00;93437.53;5056817;28;20037;-61
2023/03/23 00:04:25;;;;;;;10.80;5.67;;;;;;;8.26;100.00;93435.44;5067470;28;20072;-65
2023/03/23 00:06:51;;;;;;;7.95;4.95;;;;;;;8.38;100.00;93435.63;5068601;28;20444;-64
2023/03/23 00:09:17;;;;;;;9.23;5.10;;;;;;;8.34;100.00;93434.16;5067129;28;20037;-62
2023/03/23 00:11:42;;;;;;;8.25;5.00;;;;;;;8.14;100.00;93436.78;5088846;28;20043;-61
2023/03/23 00:14:12;;;;;;;9.60;5.13;;;;;;;8.00;100.00;93437.72;5068034;28;20055;-62
2023/03/23 00:16:40;;;;;;;8.85;5.13;;;;;;;8.05;100.00;93420.91;5066388;28;20040;-62
2023/03/23 00:19:12;;;;;;;8.00;4.75;;;;;;;8.16;100.00;93428.94;5067544;28;20048;-62
2023/03/23 00:21:41;;;;;;;9.48;5.07;;;;;;;8.27;100.00;93426.03;5069750;28;20037;-63
2023/03/23 00:24:09;;;;;;;11.00;5.20;;;;;;;8.36;100.00;93429.81;5071728;28;20048;-65
2023/03/23 00:26:39;;;;;;;8.27;5.18;;;;;;;8.43;100.00;93428.19;5072160;28;20037;-61
2023/03/23 00:29:07;;;;;;;8.50;4.90;;;;;;;8.42;100.00;93423.91;5064455;28;20052;-61
2023/03/23 00:31:35;;;;;;;8.77;4.97;;;;;;;7.94;100.00;93426.47;5052234;28;20049;-63
2023/03/23 00:34:03;;;;;;;8.15;4.70;;;;;;;8.13;100.00;93427.00;5064890;28;20033;-61
2023/03/23 00:36:35;;;;;;;9.33;5.23;;;;;;;8.18;100.00;93423.81;5061903;28;20045;-62
2023/03/23 00:39:04;;;;;;;8.70;4.40;;;;;;;8.12;100.00;93420.78;5081254;28;20370;-62
2023/03/23 00:41:30;;;;;;;9.45;4.97;;;;;;;8.19;100.00;93409.75;5063158;28;20040;-61
2023/03/23 00:44:00;;;;;;;7.53;4.50;;;;;;;8.28;100.00;93408.47;5067221;28;20040;-57
2023/03/23 00:46:27;;;;;;;9.25;4.82;;;;;;;8.22;100.00;93413.63;5071915;28;20032;-62
2023/03/23 00:48:54;;;;;;;25.13;13.33;;;;;;;8.25;100.00;93418.28;5071770;28;20374;-61
2023/03/23 00:51:20;;;;;;;13.48;7.55;;;;;;;8.31;100.00;93411.16;5072808;28;20041;-62
2023/03/23 00:53:46;;;;;;;9.55;5.05;;;;;;;8.17;100.00;93412.13;5051510;28;20394;-61
2023/03/23 00:56:13;;;;;;;8.68;5.10;;;;;;;8.17;100.00;93414.09;5054010;28;20499;-62
2023/03/23 00:58:38;;;;;;;9.00;4.43;;;;;;;8.15;100.00;93406.31;5070198;28;20051;-61
2023/03/23 01:01:05;;;;;;;7.75;4.78;;;;;;;8.09;100.00;93404.44;5071031;28;20060;-61
2023/03/23 01:03:31;;;;;;;8.68;4.88;;;;;;;8.06;100.00;93399.78;5062836;28;20037;-62
2023/03/23 01:05:57;;;;;;;9.60;5.37;;;;;;;8.10;100.00;93401.28;5052792;28;20381;-61
2023/03/23 01:08:23;;;;;;;10.13;5.10;;;;;;;8.07;100.00;93393.13;5070140;28;20037;-61
2023/03/23 01:10:50;;;;;;;8.90;5.00;;;;;;;8.18;100.00;93399.22;5058190;28;20044;-61
2023/03/23 01:13:16;;;;;;;9.87;4.80;;;;;;;8.33;100.00;93386.91;5070980;28;20048;-61
2023/03/23 01:15:42;;;;;;;180.45;92.18;;;;;;;8.43;100.00;93387.16;5071083;28;20397;-64
2023/03/23 01:18:09;;;;;;;22.33;12.90;;;;;;;8.34;100.00;93385.69;5082550;28;20500;-61
2023/03/23 01:20:36;;;;;;;17.15;10.10;;;;;;;8.39;100.00;93393.44;5069680;28;20054;-62
2023/03/23 01:23:02;;;;;;;9.73;5.45;;;;;;;8.45;100.00;93395.72;5066232;28;20102;-61
2023/03/23 01:25:31;;;;;;;9.23;5.60;;;;;;;8.52;100.00;93390.16;5062560;28;20051;-62
2023/03/23 01:27:57;;;;;;;7.50;5.05;;;;;;;8.55;100.00;93381.09;5086199;28;20048;-59
2023/03/23 01:30:24;;;;;;;8.10;4.68;;;;;;;8.61;100.00;93384.91;5070948;28;20044;-62
2023/03/23 01:32:50;;;;;;;8.10;4.93;;;;;;;8.58;100.00;93380.28;5069716;28;20488;-62
2023/03/23 01:35:16;;;;;;;10.13;5.05;;;;;;;8.60;100.00;93386.88;5070357;28;20040;-62
2023/03/23 01:37:42;;;;;;;8.27;4.60;;;;;;;8.64;100.00;93384.09;5071772;28;20290;-61
2023/03/23 01:40:09;;;;;;;6.95;4.72;;;;;;;8.63;100.00;93379.03;5079282;28;20069;-61
2023/03/23 01:42:37;;;;;;;8.05;5.10;;;;;;;8.51;100.00;93385.88;5066297;28;20173;-61
2023/03/23 01:45:35;;;;;;;8.70;4.95;;;;;;;8.30;100.00;93376.78;5060575;28;20040;-62
2023/03/23 01:48:03;;;;;;;8.52;4.93;;;;;;;7.86;100.00;93384.06;5057996;28;20111;-64
2023/03/23 01:50:35;;;;;;;8.37;4.30;;;;;;;7.96;100.00;93385.84;5076442;28;20036;-64
2023/03/23 01:53:03;;;;;;;8.43;4.97;;;;;;;8.17;100.00;93386.75;5069976;28;20048;-61
2023/03/23 01:55:30;;;;;;;9.25;5.10;;;;;;;8.23;100.00;93387.03;5070669;28;20377;-61
2023/03/23 01:57:57;;;;;;;10.23;5.03;;;;;;;8.12;100.00;93389.94;5070175;28;20419;-62
2023/03/23 02:00:24;;;;;;;9.90;5.72;;;;;;;7.80;100.00;93396.63;5069545;28;21821;-62
2023/03/23 02:02:52;;;;;;;9.70;5.20;;;;;;;7.89;100.00;93390.66;5052397;28;20052;-62
2023/03/23 02:05:32;;;;;;;10.90;5.22;;;;;;;8.10;100.00;93382.16;5060292;28;20087;-62
2023/03/23 02:08:02;;;;;;;8.82;4.95;;;;;;;8.20;100.00;93380.47;5064840;28;20068;-61
2023/03/23 02:10:32;;;;;;;8.45;5.32;;;;;;;8.28;100.00;93376.44;5060792;28;20033;-61
2023/03/23 02:13:00;;;;;;;7.78;5.32;;;;;;;8.28;100.00;93376.44;5064716;28;20037;-62
2023/03/23 02:15:33;;;;;;;9.20;5.03;;;;;;;8.30;100.00;93379.53;5059865;28;20066;-62
2023/03/23 02:18:08;;;;;;;8.98;4.85;;;;;;;8.26;100.00;93383.50;5069621;28;20097;-62
2023/03/23 02:21:17;;;;;;;9.82;5.00;;;;;;;8.14;100.00;93376.66;5102490;28;20055;-61
2023/03/23 02:24:15;;;;;;;8.40;4.90;;;;;;;7.98;100.00;93385.44;5067900;28;20799;-62
2023/03/23 02:26:52;;;;;;;8.75;4.80;;;;;;;7.99;100.00;93385.06;5040986;28;20045;-64
2023/03/23 02:29:43;;;;;;;6.73;4.23;;;;;;;7.91;100.00;93382.84;5059716;28;20057;-65
2023/03/23 02:32:31;;;;;;;7.72;4.20;;;;;;;8.00;100.00;93383.84;5062779;28;20140;-63
2023/03/23 02:35:00;;;;;;;8.75;4.78;;;;;;;8.16;100.00;93371.53;5059553;28;20114;-61
2023/03/23 02:37:36;;;;;;;8.50;4.32;;;;;;;8.10;100.00;93367.72;5069573;28;20040;-62
2023/03/23 02:40:28;;;;;;;7.82;4.35;;;;;;;8.22;100.00;93358.19;5065178;28;20045;-63
2023/03/23 02:42:57;;;;;;;7.83;4.50;;;;;;;8.25;100.00;93366.34;5065070;28;20436;-65
2023/03/23 02:45:25;;;;;;;7.47;4.30;;;;;;;8.25;100.00;93349.13;5057037;28;21709;-63
2023/03/23 02:47:53;;;;;;;7.50;4.10;;;;;;;8.24;100.00;93342.13;5054532;28;20386;-62
2023/03/23 02:50:21;;;;;;;6.22;3.70;;;;;;;8.25;100.00;93343.66;5073868;28;20032;-65
2023/03/23 02:52:50;;;;;;;11.13;6.53;;;;;;;8.28;100.00;93342.84;5069880;28;20044;-63
2023/03/23 02:55:18;;;;;;;6.40;3.60;;;;;;;8.33;100.00;93321.28;5060233;28;20057;-66
2023/03/23 02:57:45;;;;;;;6.43;3.45;;;;;;;8.40;100.00;93315.69;5064298;28;20040;-62
2023/03/23 03:00:15;;;;;;;6.65;2.95;;;;;;;8.53;100.00;93309.66;5057093;28;20055;-65
2023/03/23 03:02:44;;;;;;;6.43;3.55;;;;;;;8.64;100.00;93321.19;5055574;28;20074;-62
2023/03/23 03:05:40;;;;;;;6.03;3.85;;;;;;;8.73;100.00;93340.56;5061552;28;20091;-63
2023/03/23 03:08:13;;;;;;;5.47;3.30;;;;;;;8.89;100.00;93337.13;5062316;28;20041;-63
2023/03/23 03:10:53;;;;;;;5.57;3.05;;;;;;;9.00;100.00;93323.28;5055568;28;20520;-63
2023/03/23 03:13:48;;;;;;;6.85;2.80;;;;;;;9.00;100.00;93326.03;5068905;28;20048;-62
2023/03/23 03:16:31;;;;;;;8.90;3.65;;;;;;;8.71;100.00;93323.00;5067224;28;20359;-62
2023/03/23 03:19:18;;;;;;;7.78;3.30;;;;;;;8.65;100.00;93317.25;5060587;28;20067;-61
2023/03/23 03:21:46;;;;;;;7.17;3.60;;;;;;;8.63;100.00;93321.59;5050146;28;20055;-63
2023/03/23 03:24:17;;;;;;;6.35;3.83;;;;;;;8.54;100.00;93331.13;5060968;28;20041;-62
2023/03/23 03:26:47;;;;;;;5.78;3.42;;;;;;;8.67;100.00;93325.03;5051074;28;20102;-63
2023/03/23 03:29:19;;;;;;;5.57;3.30;;;;;;;8.75;100.00;93329.19;5061414;28;20049;-62
2023/03/23 03:31:47;;;;;;;4.95;3.13;;;;;;;8.85;100.00;93320.03;5062649;28;20047;-64
2023/03/23 03:34:17;;;;;;;6.70;3.33;;;;;;;8.91;100.00;93321.06;5055558;28;20657;-64
2023/03/23 03:36:45;;;;;;;5.45;3.15;;;;;;;8.93;100.00;93324.19;5068968;28;20524;-63
2023/03/23 03:39:14;;;;;;;5.93;3.10;;;;;;;8.92;100.00;93322.63;5071012;28;20053;-66
2023/03/23 03:41:41;;;;;;;5.55;3.30;;;;;;;8.96;100.00;93328.06;5057231;28;20041;-62
2023/03/23 03:44:07;;;;;;;7.93;3.50;;;;;;;9.04;100.00;93325.97;5066772;28;20055;-62
2023/03/23 03:46:35;;;;;;;5.33;3.27;;;;;;;9.14;100.00;93330.44;5068926;28;20366;-63
2023/03/23 03:49:03;;;;;;;5.57;3.33;;;;;;;9.16;100.00;93320.63;5068428;28;20084;-62
2023/03/23 03:51:29;;;;;;;7.63;3.47;;;;;;;9.19;100.00;93317.06;5079912;28;20044;-62
2023/03/23 03:53:55;;;;;;;5.13;3.15;;;;;;;9.20;100.00;93315.09;5068895;28;20415;-62
2023/03/23 03:56:21;;;;;;;6.60;3.60;;;;;;;9.17;100.00;93319.41;5057678;28;20045;-66
2023/03/23 03:58:49;;;;;;;6.45;3.42;;;;;;;9.23;100.00;93316.97;5058032;28;20400;-63
2023/03/23 04:01:15;;;;;;;6.03;3.65;;;;;;;9.24;100.00;93320.50;5072043;28;20048;-62
2023/03/23 04:03:42;;;;;;;6.28;3.55;;;;;;;9.24;100.00;93313.03;5057924;28;20044;-65
2023/03/23 04:06:09;;;;;;;5.65;3.70;;;;;;;9.28;100.00;93310.25;5061206;28;20037;-65
2023/03/23 04:08:37;;;;;;;6.33;3.60;;;;;;;9.31;100.00;93314.84;5052873;28;20483;-62
2023/03/23 04:11:04;;;;;;;6.68;3.60;;;;;;;9.26;100.00;93316.13;5072081;28;20036;-62
2023/03/23 04:13:30;;;;;;;5.88;3.85;;;;;;;9.23;100.00;93313.47;5058228;28;20033;-62
2023/03/23 04:15:55;;;;;;;8.98;4.78;;;;;;;9.10;100.00;93316.06;5071246;28;20535;-62
2023/03/23 04:18:22;;;;;;;11.73;5.80;;;;;;;8.92;100.00;93308.94;5071562;28;20045;-63
2023/03/23 04:20:49;;;;;;;10.07;5.60;;;;;;;8.84;100.00;93295.84;5055943;28;20373;-63
2023/03/23 04:23:25;;;;;;;7.78;4.47;;;;;;;8.91;100.00;93304.66;5061948;28;20218;-64
2023/03/23 04:25:53;;;;;;;8.45;3.85;;;;;;;8.83;100.00;93310.69;5053769;28;20045;-62
2023/03/23 04:28:23;;;;;;;7.32;3.92;;;;;;;8.82;100.00;93312.66;5060673;28;20465;-62
2023/03/23 04:30:54;;;;;;;6.03;3.70;;;;;;;8.89;100.00;93309.00;5072241;28;20049;-63
2023/03/23 04:33:24;;;;;;;6.22;3.83;;;;;;;8.80;100.00;93304.88;5061851;28;20090;-63
2023/03/23 04:35:52;;;;;;;6.75;4.00;;;;;;;8.77;100.00;93305.72;5068555;28;20432;-66
2023/03/23 04:38:20;;;;;;;7.70;4.07;;;;;;;8.78;100.00;93312.72;5072789;28;20392;-63
2023/03/23 04:40:46;;;;;;;11.25;7.10;;;;;;;8.85;100.00;93308.31;5072003;28;20040;-64
2023/03/23 04:43:12;;;;;;;8.67;5.00;;;;;;;8.88;100.00;93307.47;5071382;28;20046;-63
2023/03/23 04:45:41;;;;;;;6.50;4.22;;;;;;;8.88;100.00;93302.00;5071684;28;20481;-63
2023/03/23 04:48:08;;;;;;;8.02;4.65;;;;;;;8.89;100.00;93295.34;5065979;28;20052;-63
2023/03/23 04:50:35;;;;;;;7.20;4.88;;;;;;;8.90;100.00;93305.09;5067075;28;20044;-63
2023/03/23 04:53:04;;;;;;;7.57;4.63;;;;;;;8.94;100.00;93292.88;5075293;28;20424;-63
2023/03/23 04:55:31;;;;;;;7.95;4.80;;;;;;;8.93;100.00;93301.50;5066183;28;20393;-63
2023/03/23 04:58:00;;;;;;;6.85;4.40;;;;;;;8.98;100.00;93298.28;5063515;28;20040;-60
2023/03/23 05:00:25;;;;;;;7.18;4.90;;;;;;;9.03;100.00;93307.97;5057619;28;20477;-63
2023/03/23 05:02:51;;;;;;;29.10;17.60;;;;;;;9.04;100.00;93309.53;5060438;28;20065;-64
2023/03/23 05:05:19;;;;;;;15.23;9.30;;;;;;;8.98;100.00;93310.00;5055388;28;20052;-62
2023/03/23 05:07:45;;;;;;;16.33;10.15;;;;;;;8.98;100.00;93311.97;5103631;28;20037;-62
2023/03/23 05:10:12;;;;;;;14.68;9.52;;;;;;;8.99;100.00;93317.03;5069301;28;20595;-64
2023/03/23 05:12:38;;;;;;;21.40;13.30;;;;;;;8.99;100.00;93321.72;5058960;28;20037;-62
2023/03/23 05:15:05;;;;;;;16.17;9.70;;;;;;;9.04;100.00;93317.75;5057925;28;20069;-62
2023/03/23 05:17:32;;;;;;;10.80;5.60;;;;;;;9.03;100.00;93324.41;5051317;28;20053;-65
2023/03/23 05:19:58;;;;;;;9.25;5.53;;;;;;;9.04;100.00;93325.97;5096204;28;20048;-61
2023/03/23 05:22:27;;;;;;;7.75;4.70;;;;;;;9.03;100.00;93329.88;5057176;28;20049;-62
2023/03/23 05:24:53;;;;;;;8.47;4.53;;;;;;;8.96;100.00;93330.78;5070830;28;20062;-62
2023/03/23 05:27:19;;;;;;;18.20;12.27;;;;;;;8.96;100.00;93328.06;5066659;28;20048;-66
2023/03/23 05:29:48;;;;;;;22.30;13.20;;;;;;;8.87;100.00;93322.34;5061410;28;20052;-64
2023/03/23 05:32:17;;;;;;;15.40;8.43;;;;;;;8.92;100.00;93316.41;5065940;28;20049;-64
2023/03/23 05:34:43;;;;;;;15.40;10.48;;;;;;;8.89;100.00;93309.78;5058418;28;20040;-62
2023/03/23 05:37:09;;;;;;;9.57;6.45;;;;;;;8.97;100.00;93311.22;5070235;28;20040;-62
2023/03/23 05:39:36;;;;;;;9.30;6.32;;;;;;;9.07;100.00;93309.44;5072301;28;20070;-62
2023/03/23 05:42:02;;;;;;;8.15;5.10;;;;;;;9.14;100.00;93314.78;5054952;28;20404;-62
2023/03/23 05:44:29;;;;;;;8.20;4.70;;;;;;;9.17;100.00;93311.19;5050798;28;20051;-63
2023/03/23 05:46:55;;;;;;;9.13;5.85;;;;;;;9.20;100.00;93309.59;5057627;28;20051;-63
2023/03/23 05:49:20;;;;;;;8.23;5.07;;;;;;;9.23;100.00;93318.94;5056241;28;20040;-62
2023/03/23 05:51:47;;;;;;;10.20;5.90;;;;;;;9.24;100.00;93315.00;5080356;28;20462;-63
2023/03/23 05:54:14;;;;;;;8.95;5.55;;;;;;;9.26;100.00;93323.56;5069717;28;20041;-63
2023/03/23 05:56:40;;;;;;;8.02;5.22;;;;;;;9.31;100.00;93315.63;5054484;28;20041;-63
2023/03/23 05:59:06;;;;;;;17.17;10.20;;;;;;;9.31;100.00;93323.06;5049591;28;20532;-62
2023/03/23 06:01:32;;;;;;;9.23;5.30;;;;;;;9.33;100.00;93326.16;5065266;28;20094;-62
2023/03/23 06:03:58;;;;;;;8.32;4.88;;;;;;;9.38;100.00;93336.63;5068327;28;20037;-63
2023/03/23 06:06:32;;;;;;;9.82;6.15;;;;;;;9.40;100.00;93334.25;5070244;28;20047;-64
2023/03/23 06:08:58;;;;;;;8.02;5.13;;;;;;;9.53;100.00;93339.84;5068050;28;20443;-62
2023/03/23 06:11:25;;;;;;;7.80;4.43;;;;;;;9.56;100.00;93342.50;5068581;28;20036;-63
2023/03/23 06:13:52;;;;;;;7.38;4.40;;;;;;;9.61;100.00;93338.50;5066411;28;20041;-63
2023/03/23 06:16:18;;;;;;;14.82;8.70;;;;;;;9.66;100.00;93338.00;5060098;28;20338;-61
2023/03/23 06:18:45;;;;;;;9.57;4.65;;;;;;;9.75;100.00;93346.41;5051541;28;20057;-62
2023/03/23 06:21:12;;;;;;;7.10;4.50;;;;;;;9.76;100.00;93352.69;5049263;28;20041;-63
2023/03/23 06:23:38;;;;;;;8.70;4.60;;;;;;;9.81;100.00;93349.44;5065669;28;20388;-63
2023/03/23 06:26:07;;;;;;;7.40;4.43;;;;;;;9.79;100.00;93355.31;5101513;28;20051;-64
2023/03/23 06:28:33;;;;;;;8.10;4.57;;;;;;;9.82;100.00;93361.16;5069479;28;20389;-63
2023/03/23 06:31:05;;;;;;;7.85;4.57;;;;;;;9.86;99.80;93353.63;5069431;28;20037;-64
2023/03/23 06:33:32;;;;;;;8.10;5.10;;;;;;;9.92;98.97;93366.44;5053945;28;20386;-64
2023/03/23 06:35:58;;;;;;;8.35;4.60;;;;;;;10.11;98.13;93364.06;5050836;28;20037;-64
2023/03/23 06:38:24;;;;;;;7.63;5.15;;;;;;;10.42;96.73;93378.25;5073073;28;20062;-63
2023/03/23 06:40:55;;;;;;;9.18;5.10;;;;;;;10.67;95.07;93365.94;5069219;28;20045;-63
2023/03/23 06:43:21;;;;;;;7.72;4.80;;;;;;;10.84;92.35;93372.94;5052239;28;20362;-63
2023/03/23 06:45:46;;;;;;;7.03;4.43;;;;;;;11.14;91.18;93365.50;5060470;28;20093;-64
2023/03/23 06:48:13;;;;;;;7.07;4.50;;;;;;;11.27;89.52;93362.81;5068620;28;20469;-65
2023/03/23 06:50:41;;;;;;;6.85;4.15;;;;;;;11.29;87.94;93374.13;5076480;28;20044;-64
2023/03/23 06:53:07;;;;;;;7.70;4.43;;;;;;;11.36;88.28;93371.22;5069437;28;20037;-64
2023/03/23 06:55:33;;;;;;;7.35;4.60;;;;;;;11.36;88.04;93369.22;5101580;28;20044;-62
2023/03/23 06:58:01;;;;;;;7.37;4.70;;;;;;;11.29;87.84;93368.63;5067212;28;20359;-63
2023/03/23 07:00:27;;;;;;;12.55;4.28;;;;;;;11.53;87.26;93369.16;5068986;28;20044;-63
2023/03/23 07:02:52;;;;;;;6.70;4.15;;;;;;;11.60;86.73;93358.75;5101318;28;20043;-65
2023/03/23 07:05:19;;;;;;;7.03;4.03;;;;;;;11.72;86.80;93364.72;5068388;28;20040;-62
2023/03/23 07:07:45;;;;;;;7.53;4.80;;;;;;;12.10;83.57;93370.31;5067778;28;20113;-63
2023/03/23 07:10:11;;;;;;;9.18;6.40;;;;;;;12.21;81.70;93355.47;5056304;28;20048;-62
2023/03/23 07:12:37;;;;;;;8.48;5.65;;;;;;;12.44;79.78;93366.16;5068885;28;20047;-63
2023/03/23 07:15:04;;;;;;;9.10;5.20;;;;;;;12.51;79.32;93360.41;5060569;28;20102;-62
2023/03/23 07:17:30;;;;;;;7.47;4.63;;;;;;;12.73;77.62;93379.00;5049007;28;20036;-63
2023/03/23 07:19:56;;;;;;;5.72;4.00;;;;;;;12.57;78.56;93369.66;5055370;28;20042;-65
2023/03/23 07:22:21;;;;;;;8.93;4.20;;;;;;;12.64;77.63;93376.16;5055563;28;20098;-63
2023/03/23 07:24:47;;;;;;;6.93;4.07;;;;;;;12.91;76.87;93370.94;5062158;28;20041;-62
2023/03/23 07:27:13;;;;;;;6.97;3.90;;;;;;;13.03;75.60;93377.63;5058148;28;20063;-63
2023/03/23 07:29:39;;;;;;;5.80;3.67;;;;;;;13.14;75.56;93383.56;5068598;28;20116;-66
2023/03/23 07:32:05;;;;;;;6.73;3.80;;;;;;;13.11;74.41;93381.69;5061136;28;20311;-63
2023/03/23 07:34:32;;;;;;;7.28;3.60;;;;;;;13.17;73.62;93388.16;5053599;28;20051;-63
2023/03/23 07:36:58;;;;;;;7.03;3.65;;;;;;;13.23;73.58;93387.59;5071142;28;20465;-63
2023/03/23 07:39:25;;;;;;;5.97;3.40;;;;;;;13.22;72.43;93388.81;5072124;28;20157;-63
2023/03/23 07:41:51;;;;;;;7.53;3.88;;;;;;;12.64;74.01;93387.94;5091836;28;20040;-63
2023/03/23 07:44:17;;;;;;;6.87;3.70;;;;;;;12.31;76.78;93377.13;5072271;28;20432;-63
2023/03/23 07:46:43;;;;;;;6.25;3.88;;;;;;;12.42;78.24;93376.81;5070724;28;20398;-63
2023/03/23 07:49:09;;;;;;;6.87;3.90;;;;;;;12.59;77.64;93377.47;5070730;28;20044;-66
2023/03/23 07:51:38;;;;;;;7.07;3.50;;;;;;;12.63;76.04;93371.84;5079381;28;20052;-63
2023/03/23 07:54:04;;;;;;;11.80;3.65;;;;;;;12.75;75.32;93366.31;5071997;28;20248;-64
2023/03/23 07:56:31;;;;;;;6.82;3.50;;;;;;;13.06;75.02;93367.69;5072328;28;20044;-62
2023/03/23 07:58:57;;;;;;;13.98;6.72;;;;;;;13.49;73.57;93367.03;5065595;28;20048;-60
2023/03/23 08:01:23;;;;;;;7.73;3.93;;;;;;;13.47;72.92;93374.22;5065410;28;20040;-66
2023/03/23 08:03:50;;;;;;;5.95;3.17;;;;;;;13.82;72.12;93376.91;5071087;28;20036;-65
2023/03/23 08:06:15;;;;;;;7.68;4.47;;;;;;;13.81;71.19;93380.91;5071949;28;20041;-63
2023/03/23 08:08:41;;;;;;;7.67;4.27;;;;;;;13.85;70.67;93387.06;5068244;28;20053;-63
2023/03/23 08:11:07;;;;;;;6.82;3.60;;;;;;;13.49;69.87;93380.81;5059077;28;20555;-67
2023/03/23 08:13:34;;;;;;;6.47;3.53;;;;;;;14.30;68.78;93380.25;5070748;28;20041;-63
2023/03/23 08:16:03;;;;;;;9.52;4.40;;;;;;;14.73;64.23;93390.44;5063706;28;20040;-63
2023/03/23 08:18:30;;;;;;;5.30;3.00;;;;;;;14.46;63.89;93398.56;5065182;28;20040;-63
2023/03/23 08:20:56;;;;;;;4.70;2.90;;;;;;;14.24;64.38;93398.63;5071936;28;20044;-61
2023/03/23 08:23:21;;;;;;;4.87;2.70;;;;;;;14.20;64.60;93396.00;5061096;28;20866;-62
2023/03/23 08:25:48;;;;;;;3.30;2.20;;;;;;;14.54;62.66;93405.34;5054777;28;20634;-61
2023/03/23 08:28:14;;;;;;;3.80;2.40;;;;;;;14.50;62.99;93399.22;5062040;28;20040;-62
2023/03/23 08:30:40;;;;;;;5.35;2.60;;;;;;;14.23;63.66;93392.34;5065258;28;20047;-62
2023/03/23 08:33:08;;;;;;;4.53;2.60;;;;;;;14.70;62.57;93402.38;5071215;28;20382;-63
2023/03/23 08:35:34;;;;;;;4.88;2.30;;;;;;;14.73;63.02;93409.00;5071278;28;20382;-63
2023/03/23 08:37:59;;;;;;;4.43;2.20;;;;;;;15.01;61.80;93403.56;5056748;28;20171;-63
2023/03/23 08:40:26;;;;;;;7.27;2.60;;;;;;;15.37;60.85;93400.09;5076692;28;20085;-65
2023/03/23 08:42:52;;;;;;;5.40;2.55;;;;;;;15.38;60.26;93407.91;5050967;28;20040;-62
2023/03/23 08:45:20;;;;;;;4.03;2.38;;;;;;;15.93;59.13;93398.88;5060886;28;20393;-64
2023/03/23 08:47:51;;;;;;;4.17;2.47;;;;;;;16.49;56.94;93412.63;5071430;28;20389;-64
2023/03/23 08:50:21;;;;;;;4.38;2.22;;;;;;;16.22;56.02;93411.47;5075391;28;20052;-64
2023/03/23 08:52:46;;;;;;;6.07;2.50;;;;;;;16.65;56.79;93414.28;5072526;28;20094;-62
2023/03/23 08:55:12;;;;;;;3.33;2.20;;;;;;;16.97;55.19;93415.56;5070779;28;20045;-63
2023/03/23 08:57:40;;;;;;;5.88;2.22;;;;;;;15.81;56.87;93418.44;5071455;28;20052;-63
2023/03/23 09:00:17;;;;;;;8.02;5.07;;;;;;;15.86;59.28;93428.88;5057369;28;20071;-66
2023/03/23 09:02:49;;;;;;;4.85;2.45;;;;;;;16.58;56.34;93424.44;5103774;28;20040;-62
2023/03/23 09:05:16;;;;;;;4.07;2.90;;;;;;;16.14;57.09;93419.31;5070661;28;20101;-66
2023/03/23 09:07:45;;;;;;;5.43;2.78;;;;;;;16.49;57.43;93421.69;5088003;28;20153;-65
2023/03/23 09:10:12;;;;;;;4.63;2.53;;;;;;;16.86;56.68;93429.94;5070545;28;20036;-66
2023/03/23 09:12:40;;;;;;;3.67;2.10;;;;;;;16.69;55.01;93442.59;5065951;28;20033;-66
2023/03/23 09:15:08;;;;;;;3.97;2.47;;;;;;;16.00;57.99;93444.06;5061630;28;20048;-66
2023/03/23 09:17:53;;;;;;;6.77;4.33;;;;;;;15.87;59.10;93445.00;5071269;28;20044;-63
2023/03/23 09:20:23;;;;;;;4.25;2.63;;;;;;;15.81;60.56;93443.31;5056669;28;20045;-63
2023/03/23 09:22:51;;;;;;;5.35;3.20;;;;;;;16.01;62.47;93440.09;5054824;28;20084;-63
2023/03/23 09:25:21;;;;;;;4.82;3.00;;;;;;;16.44;61.53;93435.41;5070706;28;20082;-62
2023/03/23 09:27:52;;;;;;;4.70;2.83;;;;;;;16.90;58.43;93438.06;5070913;28;20045;-62
2023/03/23 09:30:19;;;;;;;7.70;2.67;;;;;;;16.33;59.86;93439.44;5060575;28;20039;-63
2023/03/23 09:32:47;;;;;;;4.78;2.70;;;;;;;16.96;57.96;93436.19;5064551;28;20103;-63
2023/03/23 09:35:16;;;;;;;5.25;2.50;;;;;;;20.77;50.11;93440.59;5060829;28;20040;-64
2023/03/23 09:37:43;;;;;;;4.03;2.35;;;;;;;20.96;45.72;93441.75;5071438;28;20085;-63
2023/03/23 09:40:14;;;;;;;9.05;2.22;;;;;;;18.10;50.47;93442.88;5081035;28;20116;-66
2023/03/23 09:42:46;;;;;;;3.23;2.00;;;;;;;17.03;54.52;93448.94;5070698;28;20381;-63
2023/03/23 09:45:46;;;;;;;4.30;2.35;;;;;;;16.38;56.25;93446.38;5063036;28;20301;-63
2023/03/23 09:48:29;;;;;;;3.70;2.30;;;;;;;16.09;58.09;93444.84;5059608;28;20040;-66
2023/03/23 09:51:11;;;;;;;3.55;2.10;;;;;;;16.12;57.93;93448.72;5080244;28;20036;-62
2023/03/23 09:53:41;;;;;;;4.03;2.20;;;;;;;16.60;56.67;93446.16;5056567;28;20041;-64
2023/03/23 09:56:15;;;;;;;3.63;2.47;;;;;;;16.84;56.05;93451.81;5069964;28;20055;-62
2023/03/23 09:59:02;;;;;;;4.35;2.30;;;;;;;17.30;55.09;93446.03;5069760;28;20479;-62
2023/03/23 10:01:36;;;;;;;3.38;1.90;;;;;;;16.80;55.43;93450.38;5049305;28;20827;-62
2023/03/23 10:04:37;;;;;;;3.45;2.13;;;;;;;16.46;56.21;93449.56;5066379;28;20047;-66
2023/03/23 10:07:29;;;;;;;3.88;2.05;;;;;;;16.08;58.99;93450.88;5069664;28;20484;-63
2023/03/23 10:10:02;;;;;;;3.60;2.10;;;;;;;15.69;60.28;93453.28;5067000;28;20234;-62
2023/03/23 10:12:42;;;;;;;3.47;2.00;;;;;;;15.20;64.77;93454.88;5068404;28;21793;-63
2023/03/23 10:15:16;;;;;;;3.50;2.22;;;;;;;14.95;65.65;93458.63;5049866;28;20045;-66
2023/03/23 10:17:58;;;;;;;5.13;2.00;;;;;;;15.29;64.28;93459.66;5050094;28;20048;-62
2023/03/23 10:20:47;;;;;;;6.05;1.90;;;;;;;15.44;63.95;93470.94;5059778;28;21575;-64
2023/03/23 10:23:18;;;;;;;5.57;1.97;;;;;;;15.38;62.08;93468.75;5055969;28;20052;-62
2023/03/23 10:26:15;;;;;;;3.97;1.80;;;;;;;15.50;61.59;93469.09;5058929;28;20044;-61
2023/03/23 10:28:44;;;;;;;4.45;2.00;;;;;;;15.36;63.15;93471.22;5057756;28;22635;-62
2023/03/23 10:31:33;;;;;;;3.17;1.90;;;;;;;15.81;63.12;93471.75;5053590;28;20088;-62
2023/03/23 10:34:07;;;;;;;6.68;3.65;;;;;;;15.81;62.13;93474.53;5058624;28;20085;-61
2023/03/23 10:37:06;;;;;;;4.00;1.90;;;;;;;15.97;60.61;93467.91;5055938;28;20033;-62
2023/03/23 10:40:09;;;;;;;4.20;2.00;;;;;;;15.60;60.81;93476.16;5069076;28;20851;-61
2023/03/23 10:42:38;;;;;;;3.40;1.98;;;;;;;15.05;62.91;93473.25;5066534;28;20691;-62
2023/03/23 10:45:22;;;;;;;4.80;2.20;;;;;;;15.09;62.94;93479.41;5054766;28;20044;-62
2023/03/23 10:47:58;;;;;;;5.07;2.30;;;;;;;15.21;63.65;93481.28;5055563;28;20044;-62
2023/03/23 10:50:30;;;;;;;3.83;2.20;;;;;;;15.25;63.22;93473.66;5073906;28;20036;-63
2023/03/23 10:52:59;;;;;;;4.78;2.15;;;;;;;15.37;63.13;93483.81;5063359;28;20344;-63
2023/03/23 10:55:39;;;;;;;5.07;2.50;;;;;;;15.35;61.05;93485.47;5051111;28;20517;-62
2023/03/23 10:58:09;;;;;;;4.13;2.35;;;;;;;15.59;63.24;93477.38;5067508;28;20423;-61
2023/03/23 11:00:42;;;;;;;4.50;2.22;;;;;;;15.76;62.08;93470.38;5069279;28;20054;-65
2023/03/23 11:03:14;;;;;;;4.93;2.00;;;;;;;15.92;61.01;93469.31;5068602;28;20040;-62
2023/03/23 11:06:08;;;;;;;4.18;2.30;;;;;;;15.63;60.86;93466.19;5068920;28;20037;-61
2023/03/23 11:08:38;;;;;;;3.20;2.10;;;;;;;15.85;60.24;93464.06;5066616;28;20112;-62
2023/03/23 11:11:26;;;;;;;4.95;2.35;;;;;;;16.00;59.50;93463.44;5060055;28;20036;-61
2023/03/23 11:14:12;;;;;;;4.18;2.40;;;;;;;16.23;58.70;93446.22;5066022;28;20075;-64
2023/03/23 11:16:44;;;;;;;4.60;2.20;;;;;;;16.72;57.53;93461.81;5056321;28;20818;-62
2023/03/23 11:19:16;;;;;;;6.20;2.50;;;;;;;17.25;54.70;93455.00;5061547;28;20049;-63
2023/03/23 11:21:47;;;;;;;4.85;2.50;;;;;;;17.23;53.42;93459.50;5049001;28;20091;-63
2023/03/23 11:24:13;;;;;;;4.38;2.22;;;;;;;17.04;53.40;93456.78;5068545;28;20436;-62
2023/03/23 11:26:39;;;;;;;5.20;2.40;;;;;;;16.78;53.64;93454.41;5068176;28;20337;-62
2023/03/23 11:29:12;;;;;;;3.65;2.30;;;;;;;16.82;54.02;93454.28;5054574;28;20056;-66
2023/03/23 11:31:42;;;;;;;4.70;2.40;;;;;;;17.00;54.11;93447.09;5068513;28;20097;-62
2023/03/23 11:34:15;;;;;;;4.47;2.50;;;;;;;17.27;52.29;93446.97;5055968;28;20044;-63
2023/03/23 11:36:47;;;;;;;5.07;3.08;;;;;;;17.24;52.33;93439.59;5068796;28;20406;-64
2023/03/23 11:39:23;;;;;;;5.55;2.47;;;;;;;16.87;53.10;93439.78;5073947;28;20061;-62
2023/03/23 11:41:48;;;;;;;3.80;2.35;;;;;;;16.46;54.07;93444.81;5068907;28;20048;-65
2023/03/23 11:44:15;;;;;;;4.20;2.40;;;;;;;17.34;52.64;93449.41;5068463;28;20366;-62
2023/03/23 11:47:00;;;;;;;4.70;2.50;;;;;;;17.12;52.72;93444.13;5068909;28;20074;-62